Time;durP1;ratioP1;P1;durP2;ratioP2;P2;SDS_P1;SDS_P2;PMS_P1;PMS_P2;Temp;Humidity;BMP_temperature;BMP_pressure;BME280_temperature;BME280_humidity;BME280_pressure;Samples;Min_cycle;Max_cycle;Signal;HPM_P1;HPM_P2
2022/09/24 00:02:03;;;;;;;130.60;124.27;;;12.40;98.60;;;;;;5002095;28;20458;-83
2022/09/24 00:04:30;;;;;;;106.07;100.87;;;12.40;98.80;;;;;;5001763;28;20464;-82
2022/09/24 00:06:57;;;;;;;106.40;101.73;;;12.50;99.30;;;;;;5001656;28;20889;-82
2022/09/24 00:09:25;;;;;;;129.47;123.30;;;12.30;99.70;;;;;;5002393;28;20492;-82
2022/09/24 00:11:52;;;;;;;165.93;159.27;;;12.30;99.90;;;;;;5002021;28;20549;-82
2022/09/24 00:14:20;;;;;;;176.10;168.80;;;12.30;99.90;;;;;;5001763;28;20462;-82
2022/09/24 00:16:47;;;;;;;188.07;180.60;;;12.20;99.90;;;;;;5001847;28;20481;-82
2022/09/24 00:19:14;;;;;;;177.67;170.67;;;12.20;99.90;;;;;;5002184;28;21008;-82
2022/09/24 00:21:44;;;;;;;181.50;173.73;;;12.30;99.90;;;;;;5002016;28;21013;-82
2022/09/24 00:26:48;;;;;;;157.20;150.40;;;12.30;99.90;;;;;;5001246;28;20896;-82
2022/09/24 00:27:04;;;;;;;132.77;127.27;;;12.30;99.90;;;;;;5001538;28;20470;-82
2022/09/24 00:29:32;;;;;;;144.30;138.10;;;12.40;99.90;;;;;;5002138;28;20544;-83
2022/09/24 00:31:59;;;;;;;131.13;125.13;;;12.30;99.90;;;;;;5001406;28;20454;-82
2022/09/24 00:34:29;;;;;;;115.33;109.97;;;12.50;99.90;;;;;;5001079;28;20469;-82
2022/09/24 00:36:58;;;;;;;103.93;99.33;;;12.40;99.90;;;;;;5001160;28;20569;-82
2022/09/24 00:39:25;;;;;;;89.30;85.03;;;12.50;99.90;;;;;;5002274;28;20537;-82
2022/09/24 00:41:54;;;;;;;146.70;140.40;;;12.50;99.90;;;;;;5000660;28;20454;-82
2022/09/24 00:44:46;;;;;;;142.53;136.53;;;12.60;99.90;;;;;;5000095;28;20442;-83
2022/09/24 00:47:15;;;;;;;137.07;131.37;;;12.60;99.90;;;;;;5001320;28;20470;-82
2022/09/24 00:49:42;;;;;;;174.97;167.37;;;12.60;99.90;;;;;;5001397;28;20461;-83
2022/09/24 00:52:09;;;;;;;217.60;208.53;;;12.60;99.90;;;;;;5001579;28;20454;-84
2022/09/24 00:54:36;;;;;;;202.17;194.33;;;12.60;99.90;;;;;;5000877;28;20458;-82
2022/09/24 00:57:06;;;;;;;191.60;184.20;;;12.50;99.90;;;;;;5001497;28;20496;-82
2022/09/24 00:59:34;;;;;;;223.97;215.57;;;12.50;99.90;;;;;;5001164;28;20454;-82
2022/09/24 01:02:04;;;;;;;254.23;244.47;;;12.40;99.90;;;;;;5000839;28;20492;-82
2022/09/24 01:04:33;;;;;;;277.33;266.70;;;12.40;99.90;;;;;;5000681;28;20807;-82
2022/09/24 01:07:02;;;;;;;297.73;285.93;;;12.40;99.90;;;;;;5000754;28;20480;-84
2022/09/24 01:09:29;;;;;;;352.87;339.03;;;12.40;99.90;;;;;;5000797;28;20458;-82
2022/09/24 01:12:03;;;;;;;423.10;406.30;;;12.40;99.90;;;;;;5000738;28;20546;-82
2022/09/24 01:15:03;;;;;;;433.93;416.00;;;12.30;99.90;;;;;;5000295;28;20549;-81
2022/09/24 01:17:39;;;;;;;401.13;385.03;;;12.40;99.90;;;;;;4989252;28;20493;-82
2022/09/24 01:20:28;;;;;;;377.03;362.40;;;12.30;99.90;;;;;;5000458;28;20454;-82
2022/09/24 01:23:10;;;;;;;351.47;337.57;;;12.30;99.90;;;;;;5000745;28;20458;-83
2022/09/24 01:25:44;;;;;;;374.20;359.53;;;12.30;99.90;;;;;;5000188;28;20977;-82
2022/09/24 01:28:28;;;;;;;416.17;398.90;;;12.20;99.90;;;;;;5001199;28;20484;-83
2022/09/24 01:31:04;;;;;;;433.40;415.40;;;12.10;99.90;;;;;;5000394;28;20969;-82
2022/09/24 01:33:39;;;;;;;473.00;453.37;;;12.20;99.90;;;;;;5000195;28;20498;-83
2022/09/24 01:36:09;;;;;;;450.30;430.73;;;12.10;99.90;;;;;;5000176;28;20496;-82
2022/09/24 01:38:40;;;;;;;485.07;465.00;;;12.20;99.90;;;;;;5000152;28;20536;-82
2022/09/24 01:41:12;;;;;;;460.77;441.13;;;12.20;99.90;;;;;;5000626;28;20837;-82
2022/09/24 01:43:41;;;;;;;453.53;434.93;;;12.30;99.90;;;;;;5000222;28;20458;-82
2022/09/24 01:46:13;;;;;;;448.77;430.27;;;12.10;99.90;;;;;;5000125;28;20820;-82
2022/09/24 01:48:41;;;;;;;444.23;425.90;;;12.10;99.90;;;;;;5000152;28;20512;-82
2022/09/24 01:51:13;;;;;;;422.90;406.03;;;12.20;99.90;;;;;;4999279;28;20465;-82
2022/09/24 01:53:48;;;;;;;400.77;384.40;;;12.10;99.90;;;;;;5000209;28;20450;-83
2022/09/24 01:56:22;;;;;;;400.70;384.80;;;12.10;99.90;;;;;;5000140;28;20484;-82
2022/09/24 01:58:55;;;;;;;402.33;386.20;;;12.20;99.90;;;;;;5004410;28;20498;-82
2022/09/24 02:01:31;;;;;;;389.00;373.20;;;12.20;99.90;;;;;;5004302;28;20465;-82
2022/09/24 02:04:05;;;;;;;382.57;367.27;;;12.20;99.90;;;;;;5004414;28;20840;-82
2022/09/24 02:06:36;;;;;;;382.17;366.87;;;12.30;99.90;;;;;;5004257;28;20493;-81
2022/09/24 02:09:05;;;;;;;360.00;346.10;;;12.20;99.90;;;;;;5004222;28;20446;-83
2022/09/24 02:11:39;;;;;;;365.60;351.50;;;12.30;99.90;;;;;;5004474;28;20454;-83
2022/09/24 02:14:10;;;;;;;374.50;359.60;;;12.30;99.90;;;;;;5003936;28;20462;-83
2022/09/24 02:16:44;;;;;;;372.40;357.60;;;12.20;99.90;;;;;;5003931;28;20484;-81
2022/09/24 02:19:16;;;;;;;399.67;383.37;;;12.20;99.90;;;;;;5003916;28;20985;-82
2022/09/24 02:21:45;;;;;;;417.00;400.23;;;12.20;99.90;;;;;;5004182;28;20552;-82
2022/09/24 02:24:16;;;;;;;449.37;431.13;;;12.20;99.90;;;;;;5003286;28;20458;-82
2022/09/24 02:26:43;;;;;;;458.90;439.83;;;12.20;99.90;;;;;;5003521;28;20460;-82
2022/09/24 02:29:11;;;;;;;483.27;462.83;;;12.20;99.90;;;;;;5003210;28;20449;-82
2022/09/24 02:31:43;;;;;;;550.23;526.83;;;12.30;99.90;;;;;;5003440;28;20450;-82
2022/09/24 02:34:23;;;;;;;538.93;515.60;;;12.20;99.90;;;;;;5002990;28;20450;-82
2022/09/24 02:37:01;;;;;;;559.00;534.70;;;12.10;99.90;;;;;;5003178;28;20485;-82
2022/09/24 02:39:28;;;;;;;499.97;479.03;;;12.10;99.90;;;;;;5002605;28;20457;-82
2022/09/24 02:41:57;;;;;;;502.83;481.90;;;12.20;99.90;;;;;;5003077;28;20454;-84
2022/09/24 02:44:29;;;;;;;498.57;477.50;;;12.20;99.90;;;;;;5002690;28;20821;-84
2022/09/24 02:46:58;;;;;;;600.43;574.60;;;12.20;99.90;;;;;;5003361;28;20477;-82
2022/09/24 02:49:25;;;;;;;574.80;550.63;;;12.20;99.90;;;;;;5003446;28;20518;-82
2022/09/24 02:51:55;;;;;;;567.87;543.27;;;12.20;99.90;;;;;;5003015;28;20521;-81
2022/09/24 02:54:22;;;;;;;569.23;544.23;;;12.20;99.90;;;;;;5002663;28;20450;-83
2022/09/24 02:56:49;;;;;;;531.90;510.03;;;12.30;99.90;;;;;;5002618;28;20500;-82
2022/09/24 02:59:18;;;;;;;527.33;506.13;;;12.10;99.90;;;;;;5002663;28;20450;-82
2022/09/24 03:01:45;;;;;;;534.53;512.30;;;12.20;99.90;;;;;;5002720;28;20449;-82
2022/09/24 03:04:13;;;;;;;549.80;526.43;;;12.20;99.90;;;;;;5002422;28;20454;-82
2022/09/24 03:06:40;;;;;;;589.00;563.30;;;12.20;99.90;;;;;;5002961;28;20454;-83
2022/09/24 03:09:07;;;;;;;607.83;581.57;;;12.20;99.90;;;;;;5002021;28;20823;-82
2022/09/24 03:11:34;;;;;;;601.73;575.73;;;12.00;99.90;;;;;;5002227;28;20469;-82
2022/09/24 03:14:04;;;;;;;646.97;617.67;;;12.10;99.90;;;;;;5001933;28;20458;-81
2022/09/24 03:16:32;;;;;;;586.23;560.33;;;12.10;99.90;;;;;;5001131;28;20484;-82
2022/09/24 03:18:59;;;;;;;561.03;537.13;;;11.90;99.90;;;;;;5002813;28;20611;-82
2022/09/24 03:21:27;;;;;;;570.20;545.63;;;12.00;99.90;;;;;;5002268;28;20962;-83
2022/09/24 03:23:54;;;;;;;571.77;546.67;;;11.90;99.90;;;;;;5018578;28;20471;-83
2022/09/24 03:26:21;;;;;;;550.90;527.10;;;11.90;99.90;;;;;;5021191;28;20460;-82
2022/09/24 03:28:49;;;;;;;574.47;548.43;;;11.80;99.90;;;;;;5021537;28;20480;-82
2022/09/24 03:31:23;;;;;;;605.83;577.10;;;11.60;99.90;;;;;;5020476;28;20449;-82
2022/09/24 03:33:50;;;;;;;630.47;600.47;;;11.60;99.90;;;;;;5021271;28;20457;-82
2022/09/24 03:36:21;;;;;;;657.63;626.40;;;11.60;99.90;;;;;;5021397;28;20520;-82
2022/09/24 03:38:51;;;;;;;688.40;654.60;;;11.40;99.90;;;;;;5020943;28;20524;-82
2022/09/24 03:41:18;;;;;;;740.67;701.83;;;11.50;99.90;;;;;;5021384;28;20839;-82
2022/09/24 03:43:45;;;;;;;763.57;722.27;;;11.50;99.90;;;;;;5021193;28;20453;-82
2022/09/24 03:46:12;;;;;;;780.70;737.47;;;11.50;99.90;;;;;;5020878;28;20464;-82
2022/09/24 03:48:40;;;;;;;753.80;713.33;;;11.50;99.90;;;;;;5020870;28;20484;-82
2022/09/24 03:51:12;;;;;;;796.90;752.10;;;11.60;99.90;;;;;;5021104;28;20976;-82
2022/09/24 03:53:39;;;;;;;802.03;756.47;;;11.50;99.90;;;;;;5021615;28;20460;-82
2022/09/24 03:56:08;;;;;;;715.27;677.80;;;11.60;99.90;;;;;;5020186;28;20457;-82
2022/09/24 03:58:37;;;;;;;716.83;679.17;;;11.50;99.90;;;;;;5021080;28;20541;-83
2022/09/24 04:01:04;;;;;;;762.70;722.30;;;11.50;99.90;;;;;;5020371;28;20465;-82
2022/09/24 04:03:31;;;;;;;803.83;759.10;;;11.40;99.90;;;;;;5021124;28;20484;-84
2022/09/24 04:05:58;;;;;;;769.23;726.97;;;11.40;99.90;;;;;;5019371;28;20453;-82
2022/09/24 04:08:25;;;;;;;768.30;726.70;;;11.40;99.90;;;;;;5020289;28;21003;-82
2022/09/24 04:10:52;;;;;;;760.80;719.00;;;11.40;99.90;;;;;;5020134;28;20464;-82
2022/09/24 04:13:20;;;;;;;760.73;719.83;;;11.50;99.90;;;;;;5020082;28;20457;-82
2022/09/24 04:15:47;;;;;;;771.67;728.57;;;11.40;99.90;;;;;;5019909;28;20904;-82
2022/09/24 04:18:14;;;;;;;783.83;740.00;;;11.40;99.90;;;;;;5020332;28;21025;-82
2022/09/24 04:20:42;;;;;;;788.87;743.97;;;11.50;99.90;;;;;;5019483;28;20972;-82
2022/09/24 04:23:10;;;;;;;797.17;752.83;;;11.70;99.90;;;;;;5020375;28;20485;-82
2022/09/24 04:25:39;;;;;;;837.63;789.67;;;11.60;99.90;;;;;;5019609;28;20445;-82
2022/09/24 04:28:08;;;;;;;831.77;784.67;;;11.60;99.90;;;;;;5020122;28;20924;-82
2022/09/24 04:30:39;;;;;;;834.67;787.10;;;11.60;99.90;;;;;;5019790;28;20878;-83
2022/09/24 04:33:07;;;;;;;840.57;792.90;;;11.60;99.90;;;;;;5020174;28;20463;-81
2022/09/24 04:35:35;;;;;;;846.83;798.03;;;11.50;99.90;;;;;;5019682;28;20449;-82
2022/09/24 04:38:02;;;;;;;865.23;815.73;;;11.60;99.90;;;;;;5019603;28;20485;-82
2022/09/24 04:40:30;;;;;;;875.10;824.07;;;11.70;99.90;;;;;;5020201;28;20453;-82
2022/09/24 04:42:57;;;;;;;869.13;818.70;;;11.60;99.90;;;;;;5020998;28;20456;-82
2022/09/24 04:45:25;;;;;;;867.37;816.53;;;11.60;99.90;;;;;;5019549;28;20472;-82
2022/09/24 04:47:56;;;;;;;888.40;836.37;;;11.60;99.90;;;;;;5020230;28;20999;-82
2022/09/24 04:50:23;;;;;;;899.10;845.90;;;11.60;99.90;;;;;;5020102;28;20846;-82
2022/09/24 04:52:50;;;;;;;899.00;845.90;;;11.60;99.90;;;;;;5019411;28;20461;-82
2022/09/24 04:55:18;;;;;;;871.40;820.60;;;11.50;99.90;;;;;;5019077;28;20966;-82
2022/09/24 04:57:45;;;;;;;867.37;816.93;;;11.60;99.90;;;;;;5018420;28;20496;-82
2022/09/24 05:00:14;;;;;;;841.93;793.50;;;11.60;99.90;;;;;;5019252;28;20464;-82
2022/09/24 05:02:41;;;;;;;832.77;785.17;;;11.70;99.90;;;;;;5021351;28;20449;-82
2022/09/24 05:05:11;;;;;;;834.50;786.30;;;11.70;99.90;;;;;;5019019;28;20839;-83
2022/09/24 05:07:38;;;;;;;874.57;823.17;;;11.60;99.90;;;;;;5018933;28;20492;-82
2022/09/24 05:10:06;;;;;;;893.47;839.20;;;11.70;99.90;;;;;;5019544;28;20457;-82
2022/09/24 05:12:34;;;;;;;900.13;844.23;;;11.60;99.90;;;;;;5019276;28;20461;-83
2022/09/24 05:15:04;;;;;;;892.57;836.40;;;11.70;99.90;;;;;;5018826;28;20508;-82
2022/09/24 05:17:33;;;;;;;894.90;839.80;;;11.50;99.90;;;;;;5018568;28;20481;-82
2022/09/24 05:20:01;;;;;;;888.43;832.97;;;11.60;99.90;;;;;;5019254;28;20448;-82
2022/09/24 05:22:30;;;;;;;907.63;851.43;;;11.50;99.90;;;;;;5019935;28;20459;-84
2022/09/24 05:24:57;;;;;;;907.40;848.00;;;11.50;99.90;;;;;;5018764;28;20453;-82
2022/09/24 05:27:23;;;;;;;909.00;850.60;;;11.50;99.90;;;;;;5018770;28;20600;-82
2022/09/24 05:29:52;;;;;;;917.67;861.07;;;11.50;99.90;;;;;;5018714;28;20981;-82
2022/09/24 05:32:21;;;;;;;889.40;835.43;;;11.40;99.90;;;;;;5018231;28;20233;-81
2022/09/24 05:34:49;;;;;;;879.73;826.73;;;11.40;99.90;;;;;;5018453;28;20457;-82
2022/09/24 05:37:17;;;;;;;882.23;828.73;;;11.40;99.90;;;;;;5018862;28;20930;-83
2022/09/24 05:39:45;;;;;;;878.20;825.17;;;11.40;99.90;;;;;;5018478;28;20954;-82
2022/09/24 05:42:13;;;;;;;896.57;841.47;;;11.40;99.90;;;;;;5019123;28;20461;-82
2022/09/24 05:44:41;;;;;;;890.67;835.57;;;11.40;99.90;;;;;;5018942;28;20946;-82
2022/09/24 05:47:09;;;;;;;886.83;831.47;;;11.30;99.90;;;;;;5019384;28;20477;-82
2022/09/24 05:49:35;;;;;;;897.63;840.50;;;11.30;99.90;;;;;;5019222;28;20460;-82
2022/09/24 05:52:02;;;;;;;901.40;842.60;;;11.20;99.90;;;;;;5019121;28;20453;-81
2022/09/24 05:54:29;;;;;;;903.07;844.07;;;11.20;99.90;;;;;;5017767;28;20461;-82
2022/09/24 05:56:57;;;;;;;908.97;849.27;;;11.10;99.90;;;;;;5018385;28;20473;-81
2022/09/24 05:59:24;;;;;;;906.27;847.00;;;11.20;99.90;;;;;;5017237;28;20460;-81
2022/09/24 06:01:51;;;;;;;914.80;854.70;;;11.00;99.90;;;;;;5016619;28;20476;-82
2022/09/24 06:04:18;;;;;;;912.23;849.83;;;11.10;99.90;;;;;;5016825;28;20444;-81
2022/09/24 06:06:45;;;;;;;917.43;853.67;;;11.10;99.90;;;;;;5018816;28;20449;-81
2022/09/24 06:09:12;;;;;;;914.80;851.17;;;11.20;99.90;;;;;;5017041;28;20977;-82
2022/09/24 06:11:39;;;;;;;909.03;846.60;;;11.20;99.90;;;;;;5018324;28;20453;-81
2022/09/24 06:14:08;;;;;;;918.00;856.00;;;11.40;99.90;;;;;;5017688;28;20452;-81
2022/09/24 06:16:35;;;;;;;897.00;839.53;;;11.40;99.90;;;;;;5018052;28;20850;-80
2022/09/24 06:19:02;;;;;;;892.63;836.03;;;11.50;99.90;;;;;;5018034;28;20484;-81
2022/09/24 06:21:28;;;;;;;893.00;838.30;;;11.60;99.90;;;;;;5016608;28;20465;-82
2022/09/24 06:23:55;;;;;;;877.87;824.90;;;11.80;99.90;;;;;;5017580;28;20453;-80
2022/09/24 06:26:24;;;;;;;858.73;808.10;;;11.90;99.90;;;;;;5017094;28;20479;-82
2022/09/24 06:28:51;;;;;;;819.93;774.83;;;11.80;99.90;;;;;;5017417;28;20481;-81
2022/09/24 06:31:19;;;;;;;756.60;718.90;;;12.20;99.90;;;;;;5017525;28;20464;-81
2022/09/24 06:33:46;;;;;;;692.03;659.93;;;12.30;99.90;;;;;;5016382;28;20463;-81
2022/09/24 06:36:16;;;;;;;588.20;561.63;;;12.40;99.90;;;;;;5018031;28;20449;-81
2022/09/24 06:38:45;;;;;;;527.47;506.07;;;12.50;99.90;;;;;;5017166;28;20477;-82
2022/09/24 06:41:11;;;;;;;532.57;510.80;;;12.70;99.90;;;;;;5018213;28;20467;-82
2022/09/24 06:43:38;;;;;;;511.47;490.93;;;12.80;99.90;;;;;;5019365;28;20483;-82
2022/09/24 06:46:05;;;;;;;445.33;426.20;;;13.00;99.90;;;;;;5021769;28;20553;-82
2022/09/24 06:48:54;;;;;;;306.57;294.10;;;13.20;99.90;;;;;;5021756;28;20480;-82
2022/09/24 06:51:21;;;;;;;188.20;180.10;;;13.30;99.90;;;;;;5021879;28;20449;-82
2022/09/24 07:03:26;;;;;;;59.57;55.47;;;13.90;99.90;;;;;;4896208;29;20472;-82
2022/09/24 07:09:15;;;;;;;50.90;47.10;;;14.20;99.90;;;;;;4978444;28;21008;-82
2022/09/24 07:11:43;;;;;;;51.77;47.57;;;14.20;99.90;;;;;;4961448;29;20452;-83
2022/09/24 07:14:31;;;;;;;44.00;40.13;;;14.30;99.90;;;;;;4961174;29;20743;-82
2022/09/24 07:16:58;;;;;;;37.33;31.10;;;14.50;99.90;;;;;;4960113;28;20472;-81
2022/09/24 07:22:25;;;;;;;27.77;21.40;;;14.30;99.90;;;;;;4961999;28;20452;-83
2022/09/24 07:24:53;;;;;;;32.40;23.33;;;14.40;99.90;;;;;;4963051;29;20456;-83
2022/09/24 07:27:26;;;;;;;28.20;20.03;;;14.50;99.90;;;;;;4964059;28;20480;-82
2022/09/24 07:29:53;;;;;;;30.07;18.97;;;14.40;99.40;;;;;;4963425;29;20458;-83
2022/09/24 07:32:20;;;;;;;33.03;19.17;;;14.50;99.10;;;;;;4967633;28;20447;-82
2022/09/24 07:34:48;;;;;;;24.13;17.80;;;14.60;98.90;;;;;;4982411;28;20456;-83
2022/09/24 07:37:14;;;;;;;29.80;16.73;;;14.50;98.90;;;;;;4982123;28;20476;-83
2022/09/24 07:39:42;;;;;;;23.10;14.83;;;14.60;98.40;;;;;;4982340;28;20459;-83
2022/09/24 07:42:10;;;;;;;27.50;15.33;;;14.70;98.10;;;;;;4981946;28;20463;-83
2022/09/24 07:44:37;;;;;;;26.60;14.03;;;14.70;97.90;;;;;;4981391;28;20463;-83
2022/09/24 07:47:12;;;;;;;22.80;13.80;;;14.90;97.30;;;;;;4982830;28;20506;-83
2022/09/24 07:52:43;;;;;;;24.97;13.50;;;15.20;96.70;;;;;;4980630;28;20456;-82
2022/09/24 07:55:55;;;;;;;22.53;12.80;;;15.30;96.30;;;;;;4979863;28;20550;-82
2022/09/24 07:59:12;;;;;;;23.50;13.20;;;15.40;95.30;;;;;;4969403;28;20570;-83
2022/09/24 08:02:17;;;;;;;23.33;12.90;;;15.50;94.40;;;;;;4981393;28;20874;-83
2022/09/24 08:05:01;;;;;;;20.10;12.27;;;15.70;93.80;;;;;;4967540;28;20459;-83
2022/09/24 08:07:28;;;;;;;29.03;12.53;;;15.80;93.40;;;;;;4981998;28;20498;-83
2022/09/24 08:09:55;;;;;;;25.77;12.03;;;15.90;92.90;;;;;;4979886;28;20449;-83
2022/09/24 08:12:30;;;;;;;21.53;12.37;;;15.80;92.50;;;;;;4978797;28;21017;-84
2022/09/24 08:15:19;;;;;;;19.43;12.00;;;15.90;92.50;;;;;;4976178;28;20982;-87
2022/09/24 08:24:50;;;;;;;22.97;11.30;;;16.00;92.40;;;;;;4924152;28;20532;-85
2022/09/24 08:27:53;;;;;;;29.23;13.88;;;15.90;92.20;;;;;;4975129;28;20454;-85
2022/09/24 08:34:39;;;;;;;;;;;;;;;;;;;;;
2022/09/24 08:40:45;;;;;;;32.17;14.13;;;15.90;92.20;;;;;;4882082;29;20867;-85
2022/09/24 08:50:00;;;;;;;25.33;16.67;;;16.80;92.20;;;;;;4859397;29;20455;-84
2022/09/24 08:56:05;;;;;;;21.63;13.50;;;17.10;92.10;;;;;;4809304;29;20458;-85
2022/09/24 08:59:14;;;;;;;18.47;13.30;;;17.20;90.50;;;;;;4892535;29;20528;-83
2022/09/24 09:06:13;;;;;;;23.40;13.70;;;17.70;88.00;;;;;;4856839;29;20595;-85
2022/09/24 09:19:22;;;;;;;21.40;13.10;;;17.90;86.60;;;;;;4877301;29;20702;-84
2022/09/24 09:22:46;;;;;;;18.53;12.70;;;18.20;84.40;;;;;;4858122;29;20545;-85
2022/09/24 09:25:24;;;;;;;20.13;13.27;;;18.50;82.00;;;;;;4920567;29;20462;-85
2022/09/24 09:28:08;;;;;;;19.70;13.47;;;18.40;82.80;;;;;;4933652;29;20956;-85
2022/09/24 09:30:52;;;;;;;20.20;14.57;;;18.60;82.10;;;;;;4968196;28;20452;-85
2022/09/24 09:33:47;;;;;;;22.27;15.20;;;18.20;80.30;;;;;;4973892;28;20468;-85
2022/09/24 09:36:38;;;;;;;21.97;13.53;;;18.30;80.10;;;;;;4974512;28;20887;-85
2022/09/24 09:39:23;;;;;;;19.57;14.47;;;18.00;80.20;;;;;;4974112;28;20482;-85
2022/09/24 09:44:46;;;;;;;21.97;13.33;;;18.50;81.20;;;;;;4966704;28;20474;-85
2022/09/24 09:47:31;;;;;;;18.57;13.57;;;18.70;81.20;;;;;;4974185;28;20985;-85
2022/09/24 09:50:25;;;;;;;25.57;13.60;;;18.60;79.70;;;;;;4974506;28;20445;-84
2022/09/24 09:52:57;;;;;;;24.90;13.67;;;18.50;79.80;;;;;;4970559;28;20461;-86
2022/09/24 09:55:35;;;;;;;17.50;13.30;;;18.40;80.90;;;;;;4974394;28;20519;-85
2022/09/24 09:58:26;;;;;;;20.87;13.60;;;18.30;81.40;;;;;;4975294;28;20479;-83
2022/09/24 10:01:06;;;;;;;18.73;13.10;;;18.40;81.10;;;;;;4974949;28;20494;-85
2022/09/24 10:03:54;;;;;;;19.80;13.20;;;18.40;80.70;;;;;;4974100;28;20460;-85
2022/09/24 10:06:28;;;;;;;24.03;13.90;;;18.20;80.40;;;;;;4974103;28;20570;-85
2022/09/24 10:09:08;;;;;;;19.37;11.93;;;18.40;80.40;;;;;;4974156;28;20530;-85
2022/09/24 10:11:44;;;;;;;20.57;13.23;;;18.40;80.50;;;;;;4974450;28;20459;-85
2022/09/24 10:14:20;;;;;;;22.90;13.63;;;18.40;82.20;;;;;;4974374;28;20491;-85
2022/09/24 10:17:07;;;;;;;19.07;12.93;;;18.20;82.10;;;;;;4973814;28;21027;-84
2022/09/24 10:19:44;;;;;;;21.20;14.00;;;18.20;82.70;;;;;;4978041;28;20485;-86
2022/09/24 10:22:20;;;;;;;20.83;13.13;;;18.30;82.00;;;;;;4978114;28;20525;-85
2022/09/24 10:24:49;;;;;;;21.50;13.77;;;18.30;82.00;;;;;;4977726;28;20466;-85
2022/09/24 10:27:40;;;;;;;21.30;14.53;;;18.30;82.30;;;;;;4977845;28;20489;-85
2022/09/24 10:30:34;;;;;;;18.30;13.60;;;18.60;82.20;;;;;;4977782;28;21034;-85
2022/09/24 10:33:10;;;;;;;20.63;14.13;;;18.50;79.70;;;;;;4977877;28;20966;-85
2022/09/24 10:35:46;;;;;;;20.17;14.57;;;18.50;79.00;;;;;;4978091;28;20470;-85
2022/09/24 10:38:30;;;;;;;20.60;14.23;;;18.40;80.10;;;;;;4977993;28;20551;-85
2022/09/24 10:41:34;;;;;;;21.63;13.67;;;18.30;80.40;;;;;;4977652;28;20460;-86
2022/09/24 10:44:10;;;;;;;21.33;13.30;;;18.20;80.50;;;;;;4977199;28;20481;-85
2022/09/24 10:47:10;;;;;;;22.33;13.70;;;18.20;81.40;;;;;;4977639;28;20487;-85
2022/09/24 10:53:04;;;;;;;19.40;13.10;;;18.00;81.60;;;;;;4975937;28;21069;-85
2022/09/24 10:55:52;;;;;;;21.53;13.70;;;17.90;81.10;;;;;;4976810;28;20886;-85
2022/09/24 10:58:51;;;;;;;;;;;;;;;;;;;;;
2022/09/24 11:01:38;;;;;;;22.83;13.40;;;17.80;80.60;;;;;;4973011;28;20466;-85
2022/09/24 11:04:38;;;;;;;20.90;13.73;;;18.00;80.30;;;;;;4976509;28;20495;-85
2022/09/24 11:07:37;;;;;;;21.23;13.67;;;18.10;80.80;;;;;;4976588;28;20488;-85
2022/09/24 11:10:22;;;;;;;20.57;13.77;;;18.10;79.20;;;;;;4976477;28;20972;-85
2022/09/24 11:13:24;;;;;;;19.60;11.40;;;18.10;79.90;;;;;;4976782;28;20474;-86
2022/09/24 11:37:15;;;;;;;20.77;12.10;;;17.90;76.30;;;;;;4839654;29;20454;-85
2022/09/24 11:47:53;;;;;;;19.33;11.43;;;17.50;75.90;;;;;;4936440;28;20544;-86
2022/09/24 12:16:06;;;;;;;24.23;13.20;;;16.80;79.60;;;;;;4858835;29;20460;-85
2022/09/24 12:26:32;;;;;;;;;;;;;;;;;;;;;
2022/09/24 13:26:22;;;;;;;18.37;11.63;;;16.50;81.70;;;;;;4927809;29;20562;-86
2022/09/24 13:39:39;;;;;;;21.20;13.13;;;16.30;82.70;;;;;;4910734;28;20473;-86
2022/09/24 13:45:19;;;;;;;20.60;14.30;;;16.10;85.50;;;;;;4974748;28;20456;-83
2022/09/24 13:47:57;;;;;;;28.57;14.80;;;16.10;86.30;;;;;;4979951;28;20481;-83
2022/09/24 13:50:49;;;;;;;22.30;14.40;;;16.10;86.30;;;;;;4978039;28;20448;-82
2022/09/24 13:53:48;;;;;;;20.77;12.67;;;16.20;87.70;;;;;;4981977;28;20448;-82
2022/09/24 13:56:20;;;;;;;19.93;13.13;;;16.10;88.80;;;;;;4973717;28;20904;-83
2022/09/24 13:58:50;;;;;;;20.73;11.70;;;16.20;88.40;;;;;;4981000;28;20476;-83
2022/09/24 14:01:20;;;;;;;19.70;12.87;;;16.10;87.80;;;;;;4980894;28;20455;-84
2022/09/24 14:03:55;;;;;;;17.90;12.13;;;16.30;88.50;;;;;;4980511;28;20511;-81
2022/09/24 14:06:38;;;;;;;21.17;12.60;;;16.10;87.30;;;;;;4977031;28;20468;-84
2022/09/24 14:09:15;;;;;;;26.70;13.13;;;16.10;88.10;;;;;;4976815;28;20459;-83
2022/09/24 14:15:16;;;;;;;20.70;14.30;;;16.10;88.90;;;;;;4894029;28;20506;-85
2022/09/24 14:17:43;;;;;;;24.17;12.63;;;16.00;88.30;;;;;;4980174;28;20505;-83
2022/09/24 14:20:14;;;;;;;24.57;12.67;;;15.90;87.60;;;;;;4979389;28;20500;-84
2022/09/24 14:22:45;;;;;;;20.60;13.50;;;15.90;88.30;;;;;;4979857;28;20464;-83
2022/09/24 14:25:17;;;;;;;21.40;13.33;;;16.00;88.60;;;;;;4978582;28;20461;-84
2022/09/24 14:27:46;;;;;;;21.57;13.60;;;16.00;88.70;;;;;;4978908;28;20835;-83
2022/09/24 14:30:20;;;;;;;24.73;15.00;;;15.80;88.80;;;;;;4977443;28;20451;-84
2022/09/24 14:32:52;;;;;;;20.83;13.83;;;15.90;89.00;;;;;;4979482;28;20843;-84
2022/09/24 14:35:22;;;;;;;20.37;13.20;;;15.90;89.40;;;;;;4978328;28;20459;-84
2022/09/24 14:38:11;;;;;;;23.57;13.23;;;15.80;88.30;;;;;;4981370;28;20474;-84
2022/09/24 14:41:11;;;;;;;20.90;14.17;;;15.90;89.00;;;;;;4983592;28;20519;-86
2022/09/24 14:43:44;;;;;;;21.55;14.85;;;15.90;89.50;;;;;;4978041;28;20489;-84
2022/09/24 14:46:18;;;;;;;22.00;14.47;;;15.90;89.70;;;;;;4967839;28;20277;-84
2022/09/24 14:48:45;;;;;;;27.20;16.63;;;15.80;90.00;;;;;;4981309;28;21000;-84
2022/09/24 14:51:25;;;;;;;17.33;11.67;;;15.80;90.10;;;;;;4982068;28;20455;-83
2022/09/24 14:54:19;;;;;;;18.63;13.30;;;15.80;90.00;;;;;;4983324;28;20457;-84
2022/09/24 14:56:46;;;;;;;20.13;14.17;;;15.90;90.90;;;;;;4973338;28;20483;-84
2022/09/24 14:59:15;;;;;;;20.27;13.40;;;15.80;90.70;;;;;;4982329;28;20463;-84
2022/09/24 15:01:44;;;;;;;23.43;15.10;;;15.80;91.10;;;;;;4980999;28;20480;-82
2022/09/24 15:04:20;;;;;;;20.70;13.87;;;15.80;91.60;;;;;;4978528;28;20967;-83
2022/09/24 15:06:48;;;;;;;22.10;15.30;;;15.70;91.10;;;;;;4980079;28;20513;-84
2022/09/24 15:09:23;;;;;;;23.80;15.10;;;15.70;92.10;;;;;;4980326;28;20464;-83
2022/09/24 15:11:54;;;;;;;26.67;16.00;;;15.80;92.70;;;;;;4979463;28;20545;-83
2022/09/24 15:14:26;;;;;;;21.83;15.27;;;15.70;92.30;;;;;;4978793;28;20455;-83
2022/09/24 15:17:00;;;;;;;27.17;16.17;;;15.80;93.40;;;;;;4978565;28;20479;-82
2022/09/24 15:19:54;;;;;;;;;;;;;;;;;;;;;
2022/09/24 15:25:29;;;;;;;24.90;17.40;;;15.60;94.80;;;;;;4961840;28;20523;-83
2022/09/24 15:27:58;;;;;;;23.70;16.77;;;15.60;94.60;;;;;;4977981;28;20495;-83
2022/09/24 15:30:24;;;;;;;24.17;17.60;;;15.60;94.80;;;;;;4977589;28;20458;-83
2022/09/24 15:32:52;;;;;;;30.03;18.90;;;15.50;94.40;;;;;;4978270;28;20448;-83
2022/09/24 15:35:19;;;;;;;26.00;18.90;;;15.50;94.30;;;;;;4977072;28;20459;-83
2022/09/24 15:37:47;;;;;;;25.53;16.50;;;15.40;94.60;;;;;;4978396;28;20558;-82
2022/09/24 15:40:21;;;;;;;21.37;15.47;;;15.40;93.70;;;;;;4978051;28;20476;-83
2022/09/24 15:42:56;;;;;;;23.40;15.80;;;15.40;93.20;;;;;;4978084;28;20451;-83
2022/09/24 15:45:24;;;;;;;21.03;16.03;;;15.40;93.20;;;;;;4977124;28;20455;-83
2022/09/24 15:48:06;;;;;;;;;;;;;;;;;;;;;
2022/09/24 15:50:33;;;;;;;22.93;14.40;;;15.40;93.20;;;;;;4977635;28;20451;-84
2022/09/24 15:55:50;;;;;;;20.47;14.70;;;15.40;92.10;;;;;;4977468;28;20448;-84
2022/09/24 15:58:17;;;;;;;21.80;14.40;;;15.30;92.20;;;;;;4976966;28;20550;-83
2022/09/24 16:01:17;;;;;;;18.13;13.63;;;15.30;92.00;;;;;;4977580;28;20998;-82
2022/09/24 16:04:01;;;;;;;;;;;;;;;;;;;;;
2022/09/24 16:06:49;;;;;;;;;;;;;;;;;;;;;
2022/09/24 16:09:38;;;;;;;21.03;12.77;;;15.30;92.50;;;;;;4976047;28;20470;-83
2022/09/24 16:12:05;;;;;;;20.30;13.80;;;15.30;92.30;;;;;;4978209;28;20523;-83
2022/09/24 16:14:31;;;;;;;19.50;15.50;;;15.20;92.60;;;;;;4977663;28;20480;-83
2022/09/24 16:16:58;;;;;;;25.10;15.83;;;15.30;92.80;;;;;;4976573;28;20831;-83
2022/09/24 16:19:28;;;;;;;24.60;16.00;;;15.20;93.10;;;;;;4978029;28;20462;-83
2022/09/24 16:21:55;;;;;;;24.70;15.47;;;15.20;93.10;;;;;;4978304;28;21071;-84
2022/09/24 16:24:22;;;;;;;23.70;17.10;;;15.20;93.10;;;;;;4978282;28;20851;-83
2022/09/24 16:26:48;;;;;;;21.53;14.73;;;15.20;93.10;;;;;;4978068;28;20466;-83